createdAt,value
2022-09-12T00:01:28.090Z,100.00
2022-09-12T00:03:58.122Z,100.00
2022-09-12T00:06:43.744Z,100.00
2022-09-12T00:09:13.570Z,100.00
2022-09-12T00:11:43.454Z,100.00
2022-09-12T00:14:14.390Z,100.00
2022-09-12T00:16:42.164Z,100.00
2022-09-12T00:19:09.955Z,100.00
2022-09-12T00:21:39.341Z,100.00
2022-09-12T00:24:07.165Z,100.00
2022-09-12T00:26:34.658Z,100.00
2022-09-12T00:29:01.654Z,100.00
2022-09-12T00:31:28.739Z,100.00
2022-09-12T00:33:58.116Z,100.00
2022-09-12T00:36:43.723Z,100.00
2022-09-12T00:39:15.362Z,100.00
2022-09-12T00:41:42.408Z,100.00
2022-09-12T00:44:11.964Z,100.00
2022-09-12T00:47:03.080Z,100.00
2022-09-12T00:49:45.488Z,100.00
2022-09-12T00:52:22.435Z,100.00
2022-09-12T00:55:15.932Z,100.00
2022-09-12T00:57:54.258Z,100.00
2022-09-12T01:00:24.197Z,100.00
2022-09-12T01:02:58.386Z,100.00
2022-09-12T01:05:28.562Z,100.00
2022-09-12T01:07:57.259Z,100.00
2022-09-12T01:10:24.621Z,100.00
2022-09-12T01:13:11.175Z,100.00
2022-09-12T01:15:39.541Z,100.00
2022-09-12T01:18:41.842Z,100.00
2022-09-12T01:21:34.653Z,100.00
2022-09-12T01:24:22.618Z,100.00
2022-09-12T01:27:32.080Z,100.00
2022-09-12T01:30:07.489Z,100.00
2022-09-12T01:33:05.377Z,100.00
2022-09-12T01:35:38.381Z,100.00
2022-09-12T01:38:28.984Z,100.00
2022-09-12T01:41:55.813Z,100.00
2022-09-12T01:44:37.638Z,100.00
2022-09-12T01:47:10.232Z,100.00
2022-09-12T01:50:06.899Z,100.00
2022-09-12T01:52:51.697Z,100.00
2022-09-12T01:55:25.635Z,100.00
2022-09-12T01:58:21.788Z,100.00
2022-09-12T02:00:59.752Z,100.00
2022-09-12T02:03:33.637Z,100.00
2022-09-12T02:06:08.870Z,100.00
2022-09-12T02:08:43.393Z,100.00
2022-09-12T02:11:12.070Z,100.00
2022-09-12T02:13:53.818Z,100.00
2022-09-12T02:16:47.124Z,100.00
2022-09-12T02:19:23.623Z,100.00
2022-09-12T02:21:56.206Z,100.00
2022-09-12T02:24:46.744Z,100.00
2022-09-12T02:27:27.833Z,100.00
2022-09-12T02:29:54.909Z,100.00
2022-09-12T02:32:33.429Z,100.00
2022-09-12T02:35:22.298Z,100.00
2022-09-12T02:38:04.064Z,100.00
2022-09-12T02:40:31.381Z,100.00
2022-09-12T02:42:58.622Z,100.00
2022-09-12T02:45:25.957Z,100.00
2022-09-12T02:48:19.075Z,100.00
2022-09-12T02:50:46.564Z,100.00
2022-09-12T02:53:13.931Z,100.00
2022-09-12T02:55:42.757Z,100.00
2022-09-12T02:58:31.226Z,100.00
2022-09-12T03:01:33.624Z,100.00
2022-09-12T03:04:46.979Z,100.00
2022-09-12T03:07:26.288Z,100.00
2022-09-12T03:10:33.162Z,100.00
2022-09-12T03:13:08.769Z,100.00
2022-09-12T03:15:57.230Z,100.00
2022-09-12T03:18:53.564Z,100.00
2022-09-12T03:21:32.360Z,100.00
2022-09-12T03:24:13.983Z,100.00
2022-09-12T03:26:53.130Z,100.00
2022-09-12T03:29:21.581Z,100.00
2022-09-12T03:31:54.045Z,100.00
2022-09-12T03:34:22.893Z,100.00
2022-09-12T03:36:50.113Z,100.00
2022-09-12T03:39:17.957Z,100.00
2022-09-12T03:42:03.628Z,100.00
2022-09-12T03:44:30.568Z,100.00
2022-09-12T03:46:57.510Z,100.00
2022-09-12T03:49:24.469Z,100.00
2022-09-12T03:51:51.470Z,100.00
2022-09-12T03:54:27.153Z,100.00
2022-09-12T03:56:54.095Z,100.00
2022-09-12T03:59:21.042Z,100.00
2022-09-12T04:01:47.969Z,100.00
2022-09-12T04:04:14.933Z,100.00
2022-09-12T04:07:00.336Z,100.00
2022-09-12T04:09:27.353Z,100.00
2022-09-12T04:11:54.287Z,100.00
2022-09-12T04:14:21.214Z,100.00
2022-09-12T04:16:48.347Z,100.00
2022-09-12T04:19:15.308Z,100.00
2022-09-12T04:21:42.205Z,100.00
2022-09-12T04:24:09.324Z,100.00
2022-09-12T04:26:36.240Z,100.00
2022-09-12T04:29:21.708Z,100.00
2022-09-12T04:31:48.725Z,100.00
2022-09-12T04:34:33.981Z,100.00
2022-09-12T04:37:01.036Z,100.00
2022-09-12T04:39:28.064Z,100.00
2022-09-12T04:41:55.094Z,100.00
2022-09-12T04:44:40.295Z,100.00
2022-09-12T04:47:07.659Z,100.00
2022-09-12T04:49:34.780Z,100.00
2022-09-12T04:52:20.213Z,100.00
2022-09-12T04:54:47.224Z,100.00
2022-09-12T04:57:29.208Z,100.00
2022-09-12T04:59:56.121Z,100.00
2022-09-12T05:02:23.123Z,100.00
2022-09-12T05:05:09.438Z,100.00
2022-09-12T05:07:36.591Z,100.00
2022-09-12T05:10:04.625Z,100.00
2022-09-12T05:12:31.564Z,100.00
2022-09-12T05:14:58.529Z,100.00
2022-09-12T05:17:25.445Z,100.00
2022-09-12T05:19:52.544Z,100.00
2022-09-12T05:22:19.536Z,100.00
2022-09-12T05:24:50.416Z,100.00
2022-09-12T05:27:17.793Z,100.00
2022-09-12T05:29:44.792Z,100.00
2022-09-12T05:32:12.428Z,100.00
2022-09-12T05:34:40.210Z,100.00
2022-09-12T05:37:07.121Z,100.00
2022-09-12T05:39:34.074Z,100.00
2022-09-12T05:42:01.122Z,100.00
2022-09-12T05:44:28.445Z,100.00
2022-09-12T05:47:14.097Z,100.00
2022-09-12T05:49:41.541Z,100.00
2022-09-12T05:52:08.744Z,100.00
2022-09-12T05:54:35.813Z,100.00
2022-09-12T05:57:21.464Z,100.00
2022-09-12T05:59:49.601Z,100.00
2022-09-12T06:02:17.127Z,100.00
2022-09-12T06:04:44.112Z,100.00
2022-09-12T06:07:11.277Z,100.00
2022-09-12T06:09:50.068Z,100.00
2022-09-12T06:12:26.705Z,100.00
2022-09-12T06:14:53.986Z,100.00
2022-09-12T06:17:22.048Z,100.00
2022-09-12T06:20:07.845Z,100.00
2022-09-12T06:22:35.249Z,100.00
2022-09-12T06:25:03.433Z,100.00
2022-09-12T06:27:30.393Z,100.00
2022-09-12T06:29:57.591Z,100.00
2022-09-12T06:32:24.513Z,100.00
2022-09-12T06:34:51.878Z,100.00
2022-09-12T06:37:24.645Z,100.00
2022-09-12T06:39:51.651Z,100.00
2022-09-12T06:42:19.925Z,100.00
2022-09-12T06:45:05.049Z,100.00
2022-09-12T06:47:31.994Z,100.00
2022-09-12T06:49:59.082Z,100.00
2022-09-12T06:52:26.406Z,100.00
2022-09-12T06:54:53.340Z,100.00
2022-09-12T06:57:20.265Z,100.00
2022-09-12T07:00:06.376Z,100.00
2022-09-12T07:02:33.485Z,100.00
2022-09-12T07:05:00.774Z,100.00
2022-09-12T07:07:27.700Z,100.00
2022-09-12T07:10:13.193Z,100.00
2022-09-12T07:12:40.261Z,100.00
2022-09-12T07:15:07.585Z,100.00
2022-09-12T07:17:34.608Z,100.00
2022-09-12T07:20:02.389Z,100.00
2022-09-12T07:22:29.377Z,100.00
2022-09-12T07:24:57.581Z,100.00
2022-09-12T07:27:24.564Z,100.00
2022-09-12T07:29:51.525Z,100.00
2022-09-12T07:32:18.422Z,100.00
2022-09-12T07:34:45.392Z,100.00
2022-09-12T07:37:12.364Z,100.00
2022-09-12T07:39:57.777Z,100.00
2022-09-12T07:42:24.920Z,100.00
2022-09-12T07:44:52.787Z,100.00
2022-09-12T07:47:19.789Z,100.00
2022-09-12T07:50:05.632Z,100.00
2022-09-12T07:52:32.620Z,100.00
2022-09-12T07:54:59.518Z,100.00
2022-09-12T07:57:26.560Z,100.00
2022-09-12T07:59:53.627Z,100.00
2022-09-12T08:02:39.396Z,100.00
2022-09-12T08:05:08.971Z,100.00
2022-09-12T08:07:35.889Z,100.00
2022-09-12T08:10:02.893Z,100.00
2022-09-12T08:12:32.109Z,100.00
2022-09-12T08:14:59.089Z,100.00
2022-09-12T08:17:26.160Z,100.00
2022-09-12T08:19:53.316Z,100.00
2022-09-12T08:22:21.793Z,100.00
2022-09-12T08:24:49.032Z,100.00
2022-09-12T08:27:16.295Z,100.00
2022-09-12T08:29:43.345Z,100.00
2022-09-12T08:32:10.588Z,100.00
2022-09-12T08:34:37.527Z,100.00
2022-09-12T08:37:04.485Z,100.00
2022-09-12T08:39:32.603Z,100.00
2022-09-12T08:42:06.293Z,100.00
2022-09-12T08:44:35.800Z,100.00
2022-09-12T08:47:21.040Z,100.00
2022-09-12T08:50:12.264Z,100.00
2022-09-12T08:53:02.772Z,100.00
2022-09-12T08:55:44.502Z,100.00
2022-09-12T08:58:20.234Z,100.00
2022-09-12T09:01:24.320Z,100.00
2022-09-12T09:04:28.964Z,100.00
2022-09-12T09:07:28.708Z,100.00
2022-09-12T09:10:13.928Z,100.00
2022-09-12T09:12:54.201Z,100.00
2022-09-12T09:15:52.767Z,100.00
2022-09-12T09:18:31.664Z,100.00
2022-09-12T09:21:24.740Z,100.00
2022-09-12T09:24:01.025Z,100.00
2022-09-12T09:26:49.557Z,100.00
2022-09-12T09:29:22.523Z,100.00
2022-09-12T09:31:53.249Z,100.00
2022-09-12T09:34:22.912Z,100.00
2022-09-12T09:36:50.233Z,100.00
2022-09-12T09:39:33.589Z,100.00
2022-09-12T09:42:18.024Z,100.00
2022-09-12T09:44:48.133Z,100.00
2022-09-12T09:47:15.617Z,99.62
2022-09-12T09:49:42.706Z,99.57
2022-09-12T09:52:30.580Z,97.92
2022-09-12T09:54:59.471Z,99.01
2022-09-12T09:57:35.043Z,96.86
2022-09-12T10:00:25.841Z,97.51
2022-09-12T10:03:03.002Z,98.18
2022-09-12T10:05:54.379Z,95.72
2022-09-12T10:08:23.136Z,97.54
2022-09-12T10:10:58.614Z,93.72
2022-09-12T10:13:39.449Z,92.38
2022-09-12T10:16:27.715Z,92.13
2022-09-12T10:18:57.022Z,93.47
2022-09-12T10:21:29.815Z,90.96
2022-09-12T10:24:26.174Z,88.81
2022-09-12T10:27:09.281Z,89.58
2022-09-12T10:29:47.730Z,86.46
2022-09-12T10:32:36.691Z,86.33
2022-09-12T10:35:17.805Z,86.25
2022-09-12T10:37:58.541Z,86.74
2022-09-12T10:40:44.149Z,83.51
2022-09-12T10:43:38.701Z,84.99
2022-09-12T10:46:23.812Z,84.50
2022-09-12T10:49:11.914Z,82.57
2022-09-12T10:52:16.571Z,81.28
2022-09-12T10:54:45.813Z,81.42
2022-09-12T10:57:51.717Z,80.57
2022-09-12T11:00:27.338Z,79.45
2022-09-12T11:03:16.068Z,80.37
2022-09-12T11:05:45.640Z,79.86
2022-09-12T11:08:34.498Z,78.68
2022-09-12T11:11:09.455Z,76.56
2022-09-12T11:13:56.070Z,76.19
2022-09-12T11:16:54.084Z,75.96
2022-09-12T11:19:47.111Z,72.83
2022-09-12T11:22:36.612Z,72.56
2022-09-12T11:25:12.651Z,72.30
2022-09-12T11:28:04.080Z,72.79
2022-09-12T11:31:19.128Z,70.51
2022-09-12T11:33:49.807Z,70.63
2022-09-12T11:36:24.792Z,70.89
2022-09-12T11:39:01.653Z,71.45
2022-09-12T11:41:39.493Z,71.42
2022-09-12T11:44:40.051Z,70.31
2022-09-12T11:47:29.355Z,70.44
2022-09-12T11:49:58.190Z,72.42
2022-09-12T11:52:43.790Z,69.73
2022-09-12T11:55:25.708Z,70.14
2022-09-12T11:58:11.981Z,71.42
2022-09-12T12:00:47.233Z,70.91
2022-09-12T12:03:45.337Z,71.06
2022-09-12T12:06:21.387Z,72.55
2022-09-12T12:08:50.489Z,70.21
2022-09-12T12:11:41.913Z,68.87
2022-09-12T12:14:35.518Z,68.58
2022-09-12T12:17:23.028Z,68.82
2022-09-12T12:20:07.643Z,69.37
2022-09-12T12:22:35.977Z,68.58
2022-09-12T12:25:29.710Z,70.98
2022-09-12T12:28:02.169Z,69.10
2022-09-12T12:33:18.299Z,68.21
2022-09-12T12:36:01.596Z,67.94
2022-09-12T12:38:39.125Z,68.85
2022-09-12T12:41:18.028Z,66.82
2022-09-12T12:43:47.233Z,66.71
2022-09-12T12:46:20.044Z,67.24
2022-09-12T12:48:52.553Z,64.64
2022-09-12T12:51:42.712Z,63.64
2022-09-12T12:54:40.209Z,63.78
2022-09-12T12:57:45.957Z,65.58
2022-09-12T13:00:24.951Z,66.00
2022-09-12T13:03:17.932Z,66.13
2022-09-12T13:05:51.212Z,64.91
2022-09-12T13:08:18.072Z,64.48
2022-09-12T13:11:26.892Z,64.48
2022-09-12T13:14:00.150Z,64.07
2022-09-12T13:16:53.357Z,64.58
2022-09-12T13:19:37.938Z,66.05
2022-09-12T13:22:04.740Z,63.79
2022-09-12T13:24:32.162Z,63.00
2022-09-12T13:26:59.251Z,63.73
2022-09-12T13:29:44.546Z,63.31
2022-09-12T13:32:12.790Z,63.47
2022-09-12T13:35:23.636Z,62.83
2022-09-12T13:38:07.234Z,62.92
2022-09-12T13:40:57.225Z,63.27
2022-09-12T13:43:43.207Z,63.69
2022-09-12T13:46:33.807Z,62.53
2022-09-12T13:49:09.084Z,62.44
2022-09-12T13:51:36.289Z,62.91
2022-09-12T13:54:05.485Z,63.08
2022-09-12T13:56:32.518Z,62.98
2022-09-12T13:59:01.657Z,62.69
2022-09-12T14:01:41.142Z,62.67
2022-09-12T14:04:34.882Z,62.33
2022-09-12T14:07:23.490Z,62.37
2022-09-12T14:09:56.585Z,62.29
2022-09-12T14:12:37.909Z,62.38
2022-09-12T14:15:06.981Z,61.83
2022-09-12T14:17:39.831Z,60.92
2022-09-12T14:20:13.921Z,61.87
2022-09-12T14:22:41.392Z,61.89
2022-09-12T14:25:17.330Z,61.71
2022-09-12T14:28:04.080Z,61.41
2022-09-12T14:30:34.217Z,61.85
2022-09-12T14:33:10.014Z,62.44
2022-09-12T14:35:49.318Z,61.75
2022-09-12T14:38:16.180Z,62.89
2022-09-12T14:41:07.720Z,61.68
2022-09-12T14:43:37.023Z,61.99
2022-09-12T14:46:15.912Z,62.39
2022-09-12T14:48:46.766Z,62.77
2022-09-12T14:51:24.959Z,62.78
2022-09-12T14:53:51.919Z,62.63
2022-09-12T14:56:52.902Z,62.24
2022-09-12T14:59:34.834Z,62.97
2022-09-12T15:02:14.148Z,62.45
2022-09-12T15:05:08.575Z,62.66
2022-09-12T15:07:50.652Z,62.55
2022-09-12T15:10:31.293Z,62.08
2022-09-12T15:13:10.227Z,63.71
2022-09-12T15:15:38.360Z,62.08
2022-09-12T15:18:26.728Z,62.71
2022-09-12T15:21:03.100Z,62.81
2022-09-12T15:23:51.050Z,63.02
2022-09-12T15:26:36.756Z,62.84
2022-09-12T15:29:03.939Z,62.89
2022-09-12T15:31:51.196Z,62.57
2022-09-12T15:34:19.375Z,62.81
2022-09-12T15:36:46.287Z,61.84
2022-09-12T15:39:13.253Z,62.51
2022-09-12T15:41:40.233Z,61.18
2022-09-12T15:44:11.080Z,62.29
2022-09-12T15:46:38.167Z,61.32
2022-09-12T15:49:05.197Z,60.99
2022-09-12T15:51:32.182Z,61.43
2022-09-12T15:54:00.196Z,61.70
2022-09-12T15:56:27.292Z,61.52
2022-09-12T15:58:59.312Z,62.01
2022-09-12T16:01:28.530Z,61.73
2022-09-12T16:03:55.711Z,60.60
2022-09-12T16:06:23.357Z,60.11
2022-09-12T16:08:50.492Z,61.07
2022-09-12T16:11:21.689Z,60.72
2022-09-12T16:13:49.121Z,60.21
2022-09-12T16:16:16.172Z,60.18
2022-09-12T16:18:43.338Z,60.33
2022-09-12T16:21:28.568Z,60.79
2022-09-12T16:23:55.572Z,61.25
2022-09-12T16:26:28.141Z,63.37
2022-09-12T16:29:07.264Z,62.86
2022-09-12T16:31:34.207Z,62.99
2022-09-12T16:34:01.138Z,62.88
2022-09-12T16:36:28.249Z,61.20
2022-09-12T16:39:13.700Z,60.95
2022-09-12T16:41:42.559Z,60.00
2022-09-12T16:44:29.054Z,59.06
2022-09-12T16:46:56.102Z,59.22
2022-09-12T16:49:23.036Z,58.55
2022-09-12T16:51:49.973Z,57.97
2022-09-12T16:54:17.353Z,58.02
2022-09-12T16:57:05.109Z,58.04
2022-09-12T16:59:32.627Z,58.32
2022-09-12T17:01:59.689Z,58.33
2022-09-12T17:04:41.804Z,58.74
2022-09-12T17:07:09.002Z,58.45
2022-09-12T17:09:36.021Z,58.15
2022-09-12T17:12:03.229Z,58.50
2022-09-12T17:14:30.377Z,58.57
2022-09-12T17:16:57.432Z,58.44
2022-09-12T17:19:29.829Z,58.45
2022-09-12T17:21:57.654Z,59.32
2022-09-12T17:24:24.924Z,58.01
2022-09-12T17:27:10.612Z,58.41
2022-09-12T17:29:38.521Z,59.37
2022-09-12T17:32:05.486Z,58.84
2022-09-12T17:34:32.612Z,59.03
2022-09-12T17:36:59.712Z,58.79
2022-09-12T17:39:26.751Z,59.15
2022-09-12T17:41:57.291Z,59.30
2022-09-12T17:44:24.401Z,59.39
2022-09-12T17:46:51.351Z,59.92
2022-09-12T17:49:21.982Z,60.62
2022-09-12T17:51:49.278Z,61.45
2022-09-12T17:54:18.692Z,61.73
2022-09-12T17:56:47.212Z,61.67
2022-09-12T17:59:16.803Z,61.89
2022-09-12T18:02:02.819Z,62.08
2022-09-12T18:04:30.227Z,62.01
2022-09-12T18:06:57.659Z,61.89
2022-09-12T18:09:28.381Z,62.28
2022-09-12T18:11:56.398Z,62.98
2022-09-12T18:14:24.659Z,63.32
2022-09-12T18:16:52.474Z,63.21
2022-09-12T18:19:19.605Z,63.98
2022-09-12T18:21:46.696Z,64.64
2022-09-12T18:24:13.948Z,64.71
2022-09-12T18:26:42.710Z,65.29
2022-09-12T18:29:09.966Z,66.40
2022-09-12T18:31:36.947Z,65.89
2022-09-12T18:34:05.777Z,66.35
2022-09-12T18:36:33.186Z,66.53
2022-09-12T18:39:00.572Z,66.33
2022-09-12T18:41:28.910Z,66.78
2022-09-12T18:43:57.658Z,66.92
2022-09-12T18:46:25.531Z,67.27
2022-09-12T18:48:55.313Z,67.27
2022-09-12T18:51:25.671Z,66.68
2022-09-12T18:53:56.004Z,66.95
2022-09-12T18:56:25.748Z,68.22
2022-09-12T18:58:55.172Z,67.94
2022-09-12T19:01:24.775Z,68.29
2022-09-12T19:03:53.272Z,67.96
2022-09-12T19:06:25.949Z,68.05
2022-09-12T19:08:54.469Z,68.84
2022-09-12T19:11:22.545Z,69.11
2022-09-12T19:13:52.063Z,68.76
2022-09-12T19:16:23.912Z,69.04
2022-09-12T19:18:52.434Z,69.06
2022-09-12T19:21:22.338Z,69.99
2022-09-12T19:23:49.960Z,70.43
2022-09-12T19:26:18.781Z,69.94
2022-09-12T19:28:46.111Z,70.14
2022-09-12T19:31:15.560Z,69.75
2022-09-12T19:33:42.736Z,69.94
2022-09-12T19:36:34.039Z,70.66
2022-09-12T19:39:00.208Z,70.97
2022-09-12T19:41:27.398Z,71.03
2022-09-12T19:43:56.132Z,71.07
2022-09-12T19:46:24.268Z,71.08
2022-09-12T19:48:52.537Z,71.23
2022-09-12T19:51:21.509Z,71.59
2022-09-12T19:53:50.116Z,71.69
2022-09-12T19:56:17.187Z,71.59
2022-09-12T19:58:46.630Z,71.94
2022-09-12T20:01:22.322Z,72.77
2022-09-12T20:03:52.420Z,72.51
2022-09-12T20:06:19.763Z,73.40
2022-09-12T20:08:46.834Z,73.69
2022-09-12T20:11:17.453Z,73.98
2022-09-12T20:13:44.994Z,73.85
2022-09-12T20:16:21.846Z,73.94
2022-09-12T20:18:57.709Z,74.04
2022-09-12T20:21:31.007Z,75.58
2022-09-12T20:24:11.901Z,75.06
2022-09-12T20:26:39.738Z,75.72
2022-09-12T20:29:07.291Z,75.09
2022-09-12T20:31:35.776Z,75.52
2022-09-12T20:34:02.839Z,76.23
2022-09-12T20:36:29.821Z,76.02
2022-09-12T20:38:59.850Z,75.82
2022-09-12T20:41:29.126Z,76.18
2022-09-12T20:43:56.938Z,76.84
2022-09-12T20:46:25.360Z,77.55
2022-09-12T20:48:52.769Z,77.55
2022-09-12T20:51:21.454Z,77.24
2022-09-12T20:53:52.909Z,77.47
2022-09-12T20:56:20.373Z,77.97
2022-09-12T20:58:47.304Z,77.24
2022-09-12T21:01:15.798Z,78.00
2022-09-12T21:03:44.145Z,77.95
2022-09-12T21:06:12.630Z,77.93
2022-09-12T21:08:40.125Z,78.65
2022-09-12T21:11:07.185Z,78.49
2022-09-12T21:13:34.252Z,78.52
2022-09-12T21:16:10.266Z,78.71
2022-09-12T21:18:37.961Z,78.84
2022-09-12T21:21:05.463Z,79.13
2022-09-12T21:23:33.449Z,80.35
2022-09-12T21:26:01.326Z,80.37
2022-09-12T21:28:28.716Z,80.81
2022-09-12T21:30:55.926Z,81.54
2022-09-12T21:33:23.477Z,81.51
2022-09-12T21:35:50.773Z,81.08
2022-09-12T21:38:19.150Z,81.48
2022-09-12T21:40:46.987Z,81.56
2022-09-12T21:43:14.689Z,81.38
2022-09-12T21:45:41.721Z,80.98
2022-09-12T21:48:08.773Z,81.60
2022-09-12T21:50:36.871Z,81.70
2022-09-12T21:53:03.805Z,81.83
2022-09-12T21:55:31.069Z,81.94
2022-09-12T21:57:58.048Z,82.24
2022-09-12T22:00:25.102Z,82.23
2022-09-12T22:02:53.114Z,82.24
2022-09-12T22:05:21.202Z,82.62
2022-09-12T22:07:48.196Z,82.97
2022-09-12T22:10:15.189Z,83.52
2022-09-12T22:12:46.212Z,83.96
2022-09-12T22:15:39.031Z,83.74
2022-09-12T22:18:00.653Z,83.64
2022-09-12T22:20:27.668Z,85.16
2022-09-12T22:23:13.620Z,84.74
2022-09-12T22:25:40.769Z,84.53
2022-09-12T22:28:07.737Z,84.96
2022-09-12T22:30:35.309Z,84.52
2022-09-12T22:33:02.361Z,84.83
2022-09-12T22:35:29.312Z,84.81
2022-09-12T22:37:56.317Z,86.08
2022-09-12T22:40:23.321Z,85.63
2022-09-12T22:42:52.382Z,85.35
2022-09-12T22:45:19.875Z,86.19
2022-09-12T22:47:47.053Z,86.02
2022-09-12T22:50:14.313Z,87.04
2022-09-12T22:52:41.613Z,86.70
2022-09-12T22:55:08.777Z,88.36
2022-09-12T22:57:35.714Z,88.81
2022-09-12T23:00:10.345Z,88.12
2022-09-12T23:02:38.006Z,87.69
2022-09-12T23:05:06.006Z,88.47
2022-09-12T23:07:33.411Z,90.63
2022-09-12T23:10:00.986Z,89.95
2022-09-12T23:12:27.977Z,89.62
2022-09-12T23:14:54.928Z,89.75
2022-09-12T23:17:21.856Z,90.28
2022-09-12T23:19:48.773Z,91.46
2022-09-12T23:22:15.677Z,91.70
2022-09-12T23:24:42.594Z,90.97
2022-09-12T23:27:09.565Z,91.74
2022-09-12T23:29:36.478Z,91.49
2022-09-12T23:32:04.523Z,92.74
2022-09-12T23:34:31.705Z,94.19
2022-09-12T23:36:58.804Z,93.84
2022-09-12T23:39:25.784Z,94.58
2022-09-12T23:41:52.797Z,94.13
2022-09-12T23:44:19.768Z,94.39
2022-09-12T23:46:46.642Z,95.32
2022-09-12T23:49:13.543Z,94.97
2022-09-12T23:51:40.514Z,94.17
2022-09-12T23:54:07.435Z,94.02
2022-09-12T23:56:34.425Z,94.04
2022-09-12T23:59:01.384Z,93.57
